sensor_id;sensor_type;location;lat;lon;timestamp;P1;durP1;ratioP1;P2;durP2;ratioP2
3491;SDS011;1760;52.480;13.422;2023-04-08T00:00:57;12.00;;;7.10;;
3491;SDS011;1760;52.480;13.422;2023-04-08T00:03:26;11.63;;;8.00;;
3491;SDS011;1760;52.480;13.422;2023-04-08T00:05:54;10.70;;;6.50;;
3491;SDS011;1760;52.480;13.422;2023-04-08T00:08:21;10.10;;;6.47;;
3491;SDS011;1760;52.480;13.422;2023-04-08T00:10:48;13.00;;;6.87;;
3491;SDS011;1760;52.480;13.422;2023-04-08T00:13:20;19.40;;;7.73;;
3491;SDS011;1760;52.480;13.422;2023-04-08T00:15:49;11.83;;;7.27;;
3491;SDS011;1760;52.480;13.422;2023-04-08T00:18:16;11.57;;;6.43;;
3491;SDS011;1760;52.480;13.422;2023-04-08T00:20:46;10.80;;;6.33;;
3491;SDS011;1760;52.480;13.422;2023-04-08T00:23:13;13.30;;;7.93;;
3491;SDS011;1760;52.480;13.422;2023-04-08T00:25:40;14.40;;;7.17;;
3491;SDS011;1760;52.480;13.422;2023-04-08T00:28:07;13.10;;;7.93;;
3491;SDS011;1760;52.480;13.422;2023-04-08T00:30:34;13.77;;;7.80;;
3491;SDS011;1760;52.480;13.422;2023-04-08T00:33:01;13.97;;;8.40;;
3491;SDS011;1760;52.480;13.422;2023-04-08T00:35:28;14.73;;;7.77;;
3491;SDS011;1760;52.480;13.422;2023-04-08T00:37:57;16.73;;;8.97;;
3491;SDS011;1760;52.480;13.422;2023-04-08T00:40:27;20.43;;;10.30;;
3491;SDS011;1760;52.480;13.422;2023-04-08T00:42:56;18.97;;;8.60;;
3491;SDS011;1760;52.480;13.422;2023-04-08T00:45:24;16.80;;;9.40;;
3491;SDS011;1760;52.480;13.422;2023-04-08T00:47:53;15.47;;;8.23;;
3491;SDS011;1760;52.480;13.422;2023-04-08T00:50:21;16.77;;;8.43;;
3491;SDS011;1760;52.480;13.422;2023-04-08T00:52:48;16.70;;;9.63;;
3491;SDS011;1760;52.480;13.422;2023-04-08T00:55:16;18.23;;;10.20;;
3491;SDS011;1760;52.480;13.422;2023-04-08T00:57:43;17.07;;;9.00;;
3491;SDS011;1760;52.480;13.422;2023-04-08T01:00:11;18.50;;;10.43;;
3491;SDS011;1760;52.480;13.422;2023-04-08T01:02:41;16.77;;;10.30;;
3491;SDS011;1760;52.480;13.422;2023-04-08T01:05:13;27.23;;;10.60;;
3491;SDS011;1760;52.480;13.422;2023-04-08T01:07:45;23.50;;;10.90;;
3491;SDS011;1760;52.480;13.422;2023-04-08T01:10:14;20.00;;;11.13;;
3491;SDS011;1760;52.480;13.422;2023-04-08T01:12:47;23.30;;;11.33;;
3491;SDS011;1760;52.480;13.422;2023-04-08T01:15:16;17.97;;;9.90;;
3491;SDS011;1760;52.480;13.422;2023-04-08T01:17:44;22.70;;;10.23;;
3491;SDS011;1760;52.480;13.422;2023-04-08T01:20:12;21.93;;;11.20;;
3491;SDS011;1760;52.480;13.422;2023-04-08T01:22:43;25.40;;;10.70;;
3491;SDS011;1760;52.480;13.422;2023-04-08T01:25:30;21.93;;;10.80;;
3491;SDS011;1760;52.480;13.422;2023-04-08T01:28:00;21.77;;;10.90;;
3491;SDS011;1760;52.480;13.422;2023-04-08T01:30:32;23.63;;;10.80;;
3491;SDS011;1760;52.480;13.422;2023-04-08T01:33:01;15.90;;;9.47;;
3491;SDS011;1760;52.480;13.422;2023-04-08T01:35:29;19.47;;;10.53;;
3491;SDS011;1760;52.480;13.422;2023-04-08T01:37:57;28.50;;;10.57;;
3491;SDS011;1760;52.480;13.422;2023-04-08T01:40:27;19.90;;;10.70;;
3491;SDS011;1760;52.480;13.422;2023-04-08T01:42:55;18.07;;;9.63;;
3491;SDS011;1760;52.480;13.422;2023-04-08T01:45:27;23.37;;;12.17;;
3491;SDS011;1760;52.480;13.422;2023-04-08T01:47:58;19.30;;;10.80;;
3491;SDS011;1760;52.480;13.422;2023-04-08T01:50:26;31.00;;;13.23;;
3491;SDS011;1760;52.480;13.422;2023-04-08T01:52:55;32.70;;;10.80;;
3491;SDS011;1760;52.480;13.422;2023-04-08T01:55:27;20.17;;;12.13;;
3491;SDS011;1760;52.480;13.422;2023-04-08T01:57:55;23.13;;;12.50;;
3491;SDS011;1760;52.480;13.422;2023-04-08T02:00:28;27.30;;;12.40;;
3491;SDS011;1760;52.480;13.422;2023-04-08T02:02:59;26.13;;;13.03;;
3491;SDS011;1760;52.480;13.422;2023-04-08T02:05:27;25.60;;;12.20;;
3491;SDS011;1760;52.480;13.422;2023-04-08T02:07:57;27.87;;;11.93;;
3491;SDS011;1760;52.480;13.422;2023-04-08T02:10:23;23.37;;;11.27;;
3491;SDS011;1760;52.480;13.422;2023-04-08T02:12:50;25.00;;;11.70;;
3491;SDS011;1760;52.480;13.422;2023-04-08T02:15:21;28.93;;;12.20;;
3491;SDS011;1760;52.480;13.422;2023-04-08T02:17:51;25.03;;;11.90;;
3491;SDS011;1760;52.480;13.422;2023-04-08T02:20:22;24.90;;;10.97;;
3491;SDS011;1760;52.480;13.422;2023-04-08T02:22:55;20.07;;;10.60;;
3491;SDS011;1760;52.480;13.422;2023-04-08T02:25:29;23.77;;;11.90;;
3491;SDS011;1760;52.480;13.422;2023-04-08T02:27:58;31.73;;;15.00;;
3491;SDS011;1760;52.480;13.422;2023-04-08T02:30:28;36.43;;;15.07;;
3491;SDS011;1760;52.480;13.422;2023-04-08T02:33:05;22.40;;;12.00;;
3491;SDS011;1760;52.480;13.422;2023-04-08T02:35:33;29.20;;;13.37;;
3491;SDS011;1760;52.480;13.422;2023-04-08T02:38:00;24.23;;;13.13;;
3491;SDS011;1760;52.480;13.422;2023-04-08T02:40:28;27.20;;;12.47;;
3491;SDS011;1760;52.480;13.422;2023-04-08T02:42:56;28.90;;;12.53;;
3491;SDS011;1760;52.480;13.422;2023-04-08T02:45:25;30.47;;;13.00;;
3491;SDS011;1760;52.480;13.422;2023-04-08T02:47:55;26.73;;;11.40;;
3491;SDS011;1760;52.480;13.422;2023-04-08T02:50:26;28.33;;;12.27;;
3491;SDS011;1760;52.480;13.422;2023-04-08T02:52:54;23.30;;;12.10;;
3491;SDS011;1760;52.480;13.422;2023-04-08T02:55:21;30.83;;;12.90;;
3491;SDS011;1760;52.480;13.422;2023-04-08T02:57:49;25.27;;;12.33;;
3491;SDS011;1760;52.480;13.422;2023-04-08T03:00:16;27.00;;;11.60;;
3491;SDS011;1760;52.480;13.422;2023-04-08T03:02:45;29.23;;;12.30;;
3491;SDS011;1760;52.480;13.422;2023-04-08T03:05:12;31.50;;;14.30;;
3491;SDS011;1760;52.480;13.422;2023-04-08T03:07:41;33.77;;;13.43;;
3491;SDS011;1760;52.480;13.422;2023-04-08T03:10:08;23.70;;;12.97;;
3491;SDS011;1760;52.480;13.422;2023-04-08T03:12:35;25.90;;;13.63;;
3491;SDS011;1760;52.480;13.422;2023-04-08T03:15:05;32.60;;;12.50;;
3491;SDS011;1760;52.480;13.422;2023-04-08T03:17:33;27.40;;;12.13;;
3491;SDS011;1760;52.480;13.422;2023-04-08T03:20:00;31.07;;;14.07;;
3491;SDS011;1760;52.480;13.422;2023-04-08T03:22:28;30.40;;;13.17;;
3491;SDS011;1760;52.480;13.422;2023-04-08T03:24:56;26.70;;;13.07;;
3491;SDS011;1760;52.480;13.422;2023-04-08T03:27:23;25.67;;;11.40;;
3491;SDS011;1760;52.480;13.422;2023-04-08T03:29:51;24.30;;;12.80;;
3491;SDS011;1760;52.480;13.422;2023-04-08T03:32:18;43.83;;;14.30;;
3491;SDS011;1760;52.480;13.422;2023-04-08T03:34:45;24.57;;;13.23;;
3491;SDS011;1760;52.480;13.422;2023-04-08T03:37:13;27.13;;;13.50;;
3491;SDS011;1760;52.480;13.422;2023-04-08T03:39:40;27.23;;;12.37;;
3491;SDS011;1760;52.480;13.422;2023-04-08T03:42:09;24.07;;;12.73;;
3491;SDS011;1760;52.480;13.422;2023-04-08T03:44:36;34.07;;;14.30;;
3491;SDS011;1760;52.480;13.422;2023-04-08T03:47:03;38.47;;;15.00;;
3491;SDS011;1760;52.480;13.422;2023-04-08T03:49:37;24.53;;;12.30;;
3491;SDS011;1760;52.480;13.422;2023-04-08T03:52:04;30.37;;;13.33;;
3491;SDS011;1760;52.480;13.422;2023-04-08T03:54:31;30.93;;;14.50;;
3491;SDS011;1760;52.480;13.422;2023-04-08T03:56:58;30.70;;;13.60;;
3491;SDS011;1760;52.480;13.422;2023-04-08T03:59:27;27.23;;;12.90;;
3491;SDS011;1760;52.480;13.422;2023-04-08T04:01:57;28.30;;;13.50;;
3491;SDS011;1760;52.480;13.422;2023-04-08T04:04:27;34.07;;;14.30;;
3491;SDS011;1760;52.480;13.422;2023-04-08T04:06:54;27.67;;;12.93;;
3491;SDS011;1760;52.480;13.422;2023-04-08T04:09:21;27.03;;;12.90;;
3491;SDS011;1760;52.480;13.422;2023-04-08T04:11:48;33.60;;;15.20;;
3491;SDS011;1760;52.480;13.422;2023-04-08T04:14:20;37.37;;;15.00;;
3491;SDS011;1760;52.480;13.422;2023-04-08T04:16:50;29.73;;;14.70;;
3491;SDS011;1760;52.480;13.422;2023-04-08T04:19:19;31.93;;;13.90;;
3491;SDS011;1760;52.480;13.422;2023-04-08T04:21:45;29.40;;;13.67;;
3491;SDS011;1760;52.480;13.422;2023-04-08T04:24:12;27.10;;;13.03;;
3491;SDS011;1760;52.480;13.422;2023-04-08T04:26:39;38.10;;;14.57;;
3491;SDS011;1760;52.480;13.422;2023-04-08T04:29:06;31.27;;;14.47;;
3491;SDS011;1760;52.480;13.422;2023-04-08T04:31:35;33.67;;;15.80;;
3491;SDS011;1760;52.480;13.422;2023-04-08T04:34:03;31.90;;;13.20;;
3491;SDS011;1760;52.480;13.422;2023-04-08T04:36:34;28.80;;;12.90;;
3491;SDS011;1760;52.480;13.422;2023-04-08T04:39:03;34.90;;;15.07;;
3491;SDS011;1760;52.480;13.422;2023-04-08T04:41:33;41.03;;;15.80;;
3491;SDS011;1760;52.480;13.422;2023-04-08T04:44:04;29.63;;;13.97;;
3491;SDS011;1760;52.480;13.422;2023-04-08T04:46:33;29.43;;;14.30;;
3491;SDS011;1760;52.480;13.422;2023-04-08T04:49:00;31.83;;;15.27;;
3491;SDS011;1760;52.480;13.422;2023-04-08T04:51:36;23.87;;;14.27;;
3491;SDS011;1760;52.480;13.422;2023-04-08T04:54:03;32.50;;;16.27;;
3491;SDS011;1760;52.480;13.422;2023-04-08T04:56:30;36.77;;;14.17;;
3491;SDS011;1760;52.480;13.422;2023-04-08T04:59:00;35.73;;;15.20;;
3491;SDS011;1760;52.480;13.422;2023-04-08T05:01:26;35.83;;;15.13;;
3491;SDS011;1760;52.480;13.422;2023-04-08T05:03:56;23.70;;;12.97;;
3491;SDS011;1760;52.480;13.422;2023-04-08T05:06:22;30.60;;;14.60;;
3491;SDS011;1760;52.480;13.422;2023-04-08T05:08:51;33.70;;;16.43;;
3491;SDS011;1760;52.480;13.422;2023-04-08T05:11:18;28.87;;;15.57;;
3491;SDS011;1760;52.480;13.422;2023-04-08T05:13:46;28.50;;;14.93;;
3491;SDS011;1760;52.480;13.422;2023-04-08T05:16:13;35.43;;;13.87;;
3491;SDS011;1760;52.480;13.422;2023-04-08T05:18:43;31.03;;;15.10;;
3491;SDS011;1760;52.480;13.422;2023-04-08T05:21:10;26.47;;;15.60;;
3491;SDS011;1760;52.480;13.422;2023-04-08T05:23:37;30.50;;;15.60;;
3491;SDS011;1760;52.480;13.422;2023-04-08T05:26:15;37.13;;;16.47;;
3491;SDS011;1760;52.480;13.422;2023-04-08T05:28:42;38.20;;;16.47;;
3491;SDS011;1760;52.480;13.422;2023-04-08T05:31:09;32.67;;;16.73;;
3491;SDS011;1760;52.480;13.422;2023-04-08T05:33:36;40.03;;;15.73;;
3491;SDS011;1760;52.480;13.422;2023-04-08T05:36:06;34.13;;;15.57;;
3491;SDS011;1760;52.480;13.422;2023-04-08T05:38:36;37.90;;;17.83;;
3491;SDS011;1760;52.480;13.422;2023-04-08T05:41:04;29.57;;;16.07;;
3491;SDS011;1760;52.480;13.422;2023-04-08T05:46:04;37.47;;;17.50;;
3491;SDS011;1760;52.480;13.422;2023-04-08T05:48:32;34.83;;;15.10;;
3491;SDS011;1760;52.480;13.422;2023-04-08T05:50:58;31.43;;;15.60;;
3491;SDS011;1760;52.480;13.422;2023-04-08T05:53:25;35.60;;;15.83;;
3491;SDS011;1760;52.480;13.422;2023-04-08T05:55:52;31.20;;;16.83;;
3491;SDS011;1760;52.480;13.422;2023-04-08T05:58:19;38.20;;;17.00;;
3491;SDS011;1760;52.480;13.422;2023-04-08T06:00:50;36.50;;;17.07;;
3491;SDS011;1760;52.480;13.422;2023-04-08T06:03:19;34.23;;;17.30;;
3491;SDS011;1760;52.480;13.422;2023-04-08T06:05:51;40.80;;;21.43;;
3491;SDS011;1760;52.480;13.422;2023-04-08T06:08:18;34.93;;;16.33;;
3491;SDS011;1760;52.480;13.422;2023-04-08T06:10:47;31.33;;;15.50;;
3491;SDS011;1760;52.480;13.422;2023-04-08T06:13:15;35.67;;;17.50;;
3491;SDS011;1760;52.480;13.422;2023-04-08T06:15:43;36.10;;;16.50;;
3491;SDS011;1760;52.480;13.422;2023-04-08T06:18:15;34.87;;;16.73;;
3491;SDS011;1760;52.480;13.422;2023-04-08T06:20:42;40.87;;;17.07;;
3491;SDS011;1760;52.480;13.422;2023-04-08T06:23:09;28.50;;;14.03;;
3491;SDS011;1760;52.480;13.422;2023-04-08T06:25:38;36.83;;;16.10;;
3491;SDS011;1760;52.480;13.422;2023-04-08T06:28:06;39.13;;;15.47;;
3491;SDS011;1760;52.480;13.422;2023-04-08T06:30:33;39.23;;;16.57;;
3491;SDS011;1760;52.480;13.422;2023-04-08T06:33:00;28.37;;;15.30;;
3491;SDS011;1760;52.480;13.422;2023-04-08T06:35:31;42.63;;;18.23;;
3491;SDS011;1760;52.480;13.422;2023-04-08T06:37:58;37.40;;;16.30;;
3491;SDS011;1760;52.480;13.422;2023-04-08T06:40:26;36.60;;;17.43;;
3491;SDS011;1760;52.480;13.422;2023-04-08T06:42:53;34.13;;;16.40;;
3491;SDS011;1760;52.480;13.422;2023-04-08T06:45:20;33.53;;;15.90;;
3491;SDS011;1760;52.480;13.422;2023-04-08T06:47:47;41.90;;;17.10;;
3491;SDS011;1760;52.480;13.422;2023-04-08T06:50:14;41.37;;;18.00;;
3491;SDS011;1760;52.480;13.422;2023-04-08T06:52:42;35.70;;;17.13;;
3491;SDS011;1760;52.480;13.422;2023-04-08T06:55:09;32.00;;;16.80;;
3491;SDS011;1760;52.480;13.422;2023-04-08T06:57:36;34.83;;;13.70;;
3491;SDS011;1760;52.480;13.422;2023-04-08T07:00:04;45.87;;;17.07;;
3491;SDS011;1760;52.480;13.422;2023-04-08T07:02:32;34.73;;;16.37;;
3491;SDS011;1760;52.480;13.422;2023-04-08T07:05:01;42.73;;;15.87;;
3491;SDS011;1760;52.480;13.422;2023-04-08T07:07:31;35.87;;;15.80;;
3491;SDS011;1760;52.480;13.422;2023-04-08T07:10:01;35.80;;;16.90;;
3491;SDS011;1760;52.480;13.422;2023-04-08T07:12:28;35.50;;;17.53;;
3491;SDS011;1760;52.480;13.422;2023-04-08T07:14:55;35.67;;;15.10;;
3491;SDS011;1760;52.480;13.422;2023-04-08T07:17:22;34.83;;;15.90;;
3491;SDS011;1760;52.480;13.422;2023-04-08T07:19:48;27.83;;;15.17;;
3491;SDS011;1760;52.480;13.422;2023-04-08T07:22:16;32.90;;;15.57;;
3491;SDS011;1760;52.480;13.422;2023-04-08T07:24:46;29.77;;;15.23;;
3491;SDS011;1760;52.480;13.422;2023-04-08T07:27:15;35.67;;;14.53;;
3491;SDS011;1760;52.480;13.422;2023-04-08T07:29:42;32.13;;;14.57;;
3491;SDS011;1760;52.480;13.422;2023-04-08T07:32:12;33.43;;;15.60;;
3491;SDS011;1760;52.480;13.422;2023-04-08T07:34:38;32.17;;;14.70;;
3491;SDS011;1760;52.480;13.422;2023-04-08T07:37:05;37.20;;;15.10;;
3491;SDS011;1760;52.480;13.422;2023-04-08T07:39:32;37.80;;;16.30;;
3491;SDS011;1760;52.480;13.422;2023-04-08T07:41:59;27.40;;;13.43;;
3491;SDS011;1760;52.480;13.422;2023-04-08T07:44:30;30.53;;;16.30;;
3491;SDS011;1760;52.480;13.422;2023-04-08T07:47:02;36.60;;;16.93;;
3491;SDS011;1760;52.480;13.422;2023-04-08T07:49:30;31.70;;;15.60;;
3491;SDS011;1760;52.480;13.422;2023-04-08T07:51:57;27.70;;;15.60;;
3491;SDS011;1760;52.480;13.422;2023-04-08T07:54:24;31.17;;;15.80;;
3491;SDS011;1760;52.480;13.422;2023-04-08T07:57:00;31.80;;;15.40;;
3491;SDS011;1760;52.480;13.422;2023-04-08T07:59:27;36.50;;;16.10;;
3491;SDS011;1760;52.480;13.422;2023-04-08T08:01:57;30.53;;;14.70;;
3491;SDS011;1760;52.480;13.422;2023-04-08T08:04:24;32.40;;;16.60;;
3491;SDS011;1760;52.480;13.422;2023-04-08T08:06:51;37.33;;;16.43;;
3491;SDS011;1760;52.480;13.422;2023-04-08T08:09:18;32.47;;;15.37;;
3491;SDS011;1760;52.480;13.422;2023-04-08T08:11:44;29.10;;;14.70;;
3491;SDS011;1760;52.480;13.422;2023-04-08T08:14:12;24.93;;;13.10;;
3491;SDS011;1760;52.480;13.422;2023-04-08T08:16:41;32.53;;;14.30;;
3491;SDS011;1760;52.480;13.422;2023-04-08T08:19:08;26.10;;;14.87;;
3491;SDS011;1760;52.480;13.422;2023-04-08T08:21:36;31.23;;;14.23;;
3491;SDS011;1760;52.480;13.422;2023-04-08T08:24:03;30.83;;;15.57;;
3491;SDS011;1760;52.480;13.422;2023-04-08T08:26:33;29.53;;;16.37;;
3491;SDS011;1760;52.480;13.422;2023-04-08T08:29:00;27.47;;;14.87;;
3491;SDS011;1760;52.480;13.422;2023-04-08T08:31:27;31.43;;;15.07;;
3491;SDS011;1760;52.480;13.422;2023-04-08T08:33:58;28.80;;;15.67;;
3491;SDS011;1760;52.480;13.422;2023-04-08T08:36:28;33.20;;;15.20;;
3491;SDS011;1760;52.480;13.422;2023-04-08T08:38:55;29.67;;;14.03;;
3491;SDS011;1760;52.480;13.422;2023-04-08T08:41:24;26.67;;;14.60;;
3491;SDS011;1760;52.480;13.422;2023-04-08T08:43:50;34.20;;;14.93;;
3491;SDS011;1760;52.480;13.422;2023-04-08T08:46:19;31.17;;;12.83;;
3491;SDS011;1760;52.480;13.422;2023-04-08T08:48:46;28.03;;;14.47;;
3491;SDS011;1760;52.480;13.422;2023-04-08T08:51:14;30.83;;;15.03;;
3491;SDS011;1760;52.480;13.422;2023-04-08T08:53:44;34.17;;;17.77;;
3491;SDS011;1760;52.480;13.422;2023-04-08T08:56:12;34.07;;;14.37;;
3491;SDS011;1760;52.480;13.422;2023-04-08T08:58:39;32.67;;;13.40;;
3491;SDS011;1760;52.480;13.422;2023-04-08T09:04:06;22.63;;;12.60;;
3491;SDS011;1760;52.480;13.422;2023-04-08T09:06:38;30.07;;;14.83;;
3491;SDS011;1760;52.480;13.422;2023-04-08T09:09:07;24.30;;;14.20;;
3491;SDS011;1760;52.480;13.422;2023-04-08T09:11:36;27.93;;;15.10;;
3491;SDS011;1760;52.480;13.422;2023-04-08T09:14:05;26.13;;;13.97;;
3491;SDS011;1760;52.480;13.422;2023-04-08T09:16:42;27.27;;;15.43;;
3491;SDS011;1760;52.480;13.422;2023-04-08T09:19:11;27.27;;;14.40;;
3491;SDS011;1760;52.480;13.422;2023-04-08T09:21:42;32.17;;;14.87;;
3491;SDS011;1760;52.480;13.422;2023-04-08T09:24:09;25.43;;;13.13;;
3491;SDS011;1760;52.480;13.422;2023-04-08T09:26:53;25.93;;;12.93;;
3491;SDS011;1760;52.480;13.422;2023-04-08T09:29:30;27.43;;;15.07;;
3491;SDS011;1760;52.480;13.422;2023-04-08T09:32:01;24.00;;;13.67;;
3491;SDS011;1760;52.480;13.422;2023-04-08T09:34:30;23.70;;;11.57;;
3491;SDS011;1760;52.480;13.422;2023-04-08T09:37:02;38.13;;;16.10;;
3491;SDS011;1760;52.480;13.422;2023-04-08T09:39:31;29.13;;;13.10;;
3491;SDS011;1760;52.480;13.422;2023-04-08T09:41:58;26.93;;;15.10;;
3491;SDS011;1760;52.480;13.422;2023-04-08T09:44:28;24.20;;;13.00;;
3491;SDS011;1760;52.480;13.422;2023-04-08T09:47:00;29.57;;;15.00;;
3491;SDS011;1760;52.480;13.422;2023-04-08T09:49:36;30.90;;;15.43;;
3491;SDS011;1760;52.480;13.422;2023-04-08T09:52:08;33.07;;;14.67;;
3491;SDS011;1760;52.480;13.422;2023-04-08T09:54:41;30.40;;;15.27;;
3491;SDS011;1760;52.480;13.422;2023-04-08T09:57:20;24.47;;;13.37;;
3491;SDS011;1760;52.480;13.422;2023-04-08T10:00:03;24.20;;;13.70;;
3491;SDS011;1760;52.480;13.422;2023-04-08T10:02:36;25.23;;;13.33;;
3491;SDS011;1760;52.480;13.422;2023-04-08T10:05:11;29.17;;;14.27;;
3491;SDS011;1760;52.480;13.422;2023-04-08T10:07:41;24.00;;;12.20;;
3491;SDS011;1760;52.480;13.422;2023-04-08T10:10:08;29.77;;;12.83;;
3491;SDS011;1760;52.480;13.422;2023-04-08T10:12:36;26.10;;;13.13;;
3491;SDS011;1760;52.480;13.422;2023-04-08T10:15:21;20.83;;;11.87;;
3491;SDS011;1760;52.480;13.422;2023-04-08T10:17:52;28.63;;;13.67;;
3491;SDS011;1760;52.480;13.422;2023-04-08T10:23:11;24.27;;;13.47;;
3491;SDS011;1760;52.480;13.422;2023-04-08T10:25:39;24.10;;;13.27;;
3491;SDS011;1760;52.480;13.422;2023-04-08T10:30:55;24.60;;;13.73;;
3491;SDS011;1760;52.480;13.422;2023-04-08T10:33:23;29.30;;;13.00;;
3491;SDS011;1760;52.480;13.422;2023-04-08T10:35:58;22.60;;;12.67;;
3491;SDS011;1760;52.480;13.422;2023-04-08T10:38:28;26.33;;;12.63;;
3491;SDS011;1760;52.480;13.422;2023-04-08T10:40:57;23.07;;;12.20;;
3491;SDS011;1760;52.480;13.422;2023-04-08T10:43:24;19.27;;;11.87;;
3491;SDS011;1760;52.480;13.422;2023-04-08T10:45:52;22.27;;;12.43;;
3491;SDS011;1760;52.480;13.422;2023-04-08T10:48:19;24.97;;;14.20;;
3491;SDS011;1760;52.480;13.422;2023-04-08T10:50:52;27.60;;;13.60;;
3491;SDS011;1760;52.480;13.422;2023-04-08T10:53:23;22.63;;;12.23;;
3491;SDS011;1760;52.480;13.422;2023-04-08T10:56:03;22.50;;;12.57;;
3491;SDS011;1760;52.480;13.422;2023-04-08T10:58:31;25.60;;;13.37;;
3491;SDS011;1760;52.480;13.422;2023-04-08T11:01:01;24.10;;;13.87;;
3491;SDS011;1760;52.480;13.422;2023-04-08T11:03:31;23.83;;;13.47;;
3491;SDS011;1760;52.480;13.422;2023-04-08T11:05:58;22.20;;;12.27;;
3491;SDS011;1760;52.480;13.422;2023-04-08T11:08:26;20.90;;;12.63;;
3491;SDS011;1760;52.480;13.422;2023-04-08T11:10:55;19.17;;;11.20;;
3491;SDS011;1760;52.480;13.422;2023-04-08T11:13:27;20.07;;;12.23;;
3491;SDS011;1760;52.480;13.422;2023-04-08T11:15:56;23.53;;;13.33;;
3491;SDS011;1760;52.480;13.422;2023-04-08T11:18:24;18.23;;;11.20;;
3491;SDS011;1760;52.480;13.422;2023-04-08T11:20:52;24.23;;;12.10;;
3491;SDS011;1760;52.480;13.422;2023-04-08T11:23:20;24.27;;;14.17;;
3491;SDS011;1760;52.480;13.422;2023-04-08T11:25:49;17.53;;;10.80;;
3491;SDS011;1760;52.480;13.422;2023-04-08T11:28:16;20.17;;;10.73;;
3491;SDS011;1760;52.480;13.422;2023-04-08T11:30:46;22.37;;;12.90;;
3491;SDS011;1760;52.480;13.422;2023-04-08T11:33:14;22.73;;;12.63;;
3491;SDS011;1760;52.480;13.422;2023-04-08T11:35:43;18.40;;;11.20;;
3491;SDS011;1760;52.480;13.422;2023-04-08T11:38:15;25.20;;;12.13;;
3491;SDS011;1760;52.480;13.422;2023-04-08T11:40:52;21.47;;;11.73;;
3491;SDS011;1760;52.480;13.422;2023-04-08T11:43:20;19.80;;;11.37;;
3491;SDS011;1760;52.480;13.422;2023-04-08T11:45:51;21.00;;;11.57;;
3491;SDS011;1760;52.480;13.422;2023-04-08T11:48:19;18.20;;;9.57;;
3491;SDS011;1760;52.480;13.422;2023-04-08T11:50:47;18.97;;;10.37;;
3491;SDS011;1760;52.480;13.422;2023-04-08T11:53:30;18.93;;;12.03;;
3491;SDS011;1760;52.480;13.422;2023-04-08T11:55:57;17.30;;;9.83;;
3491;SDS011;1760;52.480;13.422;2023-04-08T11:58:41;17.47;;;10.53;;
3491;SDS011;1760;52.480;13.422;2023-04-08T12:01:10;19.30;;;11.10;;
3491;SDS011;1760;52.480;13.422;2023-04-08T12:03:36;13.50;;;8.40;;
3491;SDS011;1760;52.480;13.422;2023-04-08T12:06:03;14.60;;;9.97;;
3491;SDS011;1760;52.480;13.422;2023-04-08T12:08:32;12.43;;;8.70;;
3491;SDS011;1760;52.480;13.422;2023-04-08T12:10:59;14.70;;;8.60;;
3491;SDS011;1760;52.480;13.422;2023-04-08T12:13:26;13.77;;;8.83;;
3491;SDS011;1760;52.480;13.422;2023-04-08T12:15:53;12.20;;;8.13;;
3491;SDS011;1760;52.480;13.422;2023-04-08T12:18:21;11.03;;;7.87;;
3491;SDS011;1760;52.480;13.422;2023-04-08T12:20:48;12.40;;;7.90;;
3491;SDS011;1760;52.480;13.422;2023-04-08T12:23:15;9.50;;;7.20;;
3491;SDS011;1760;52.480;13.422;2023-04-08T12:25:42;13.23;;;8.13;;
3491;SDS011;1760;52.480;13.422;2023-04-08T12:28:09;10.67;;;7.63;;
3491;SDS011;1760;52.480;13.422;2023-04-08T12:30:36;11.83;;;8.00;;
3491;SDS011;1760;52.480;13.422;2023-04-08T12:33:05;11.33;;;7.30;;
3491;SDS011;1760;52.480;13.422;2023-04-08T12:35:36;15.40;;;7.93;;
3491;SDS011;1760;52.480;13.422;2023-04-08T12:38:05;13.90;;;7.10;;
3491;SDS011;1760;52.480;13.422;2023-04-08T12:40:32;9.23;;;7.27;;
3491;SDS011;1760;52.480;13.422;2023-04-08T12:42:59;11.07;;;7.83;;
3491;SDS011;1760;52.480;13.422;2023-04-08T12:45:25;11.00;;;7.37;;
3491;SDS011;1760;52.480;13.422;2023-04-08T12:47:54;10.80;;;6.23;;
3491;SDS011;1760;52.480;13.422;2023-04-08T12:50:21;10.03;;;7.43;;
3491;SDS011;1760;52.480;13.422;2023-04-08T12:52:49;9.60;;;6.90;;
3491;SDS011;1760;52.480;13.422;2023-04-08T12:55:16;13.00;;;7.67;;
3491;SDS011;1760;52.480;13.422;2023-04-08T12:57:43;12.10;;;7.50;;
3491;SDS011;1760;52.480;13.422;2023-04-08T13:00:13;9.63;;;7.60;;
3491;SDS011;1760;52.480;13.422;2023-04-08T13:02:40;8.63;;;6.70;;
3491;SDS011;1760;52.480;13.422;2023-04-08T13:05:08;9.17;;;6.77;;
3491;SDS011;1760;52.480;13.422;2023-04-08T13:07:35;8.63;;;6.60;;
3491;SDS011;1760;52.480;13.422;2023-04-08T13:10:03;14.77;;;8.97;;
3491;SDS011;1760;52.480;13.422;2023-04-08T13:12:31;9.47;;;6.60;;
3491;SDS011;1760;52.480;13.422;2023-04-08T13:14:58;9.70;;;6.83;;
3491;SDS011;1760;52.480;13.422;2023-04-08T13:17:25;9.47;;;6.47;;
3491;SDS011;1760;52.480;13.422;2023-04-08T13:19:53;12.00;;;7.00;;
3491;SDS011;1760;52.480;13.422;2023-04-08T13:22:19;9.50;;;6.67;;
3491;SDS011;1760;52.480;13.422;2023-04-08T13:24:46;10.10;;;7.47;;
3491;SDS011;1760;52.480;13.422;2023-04-08T13:27:17;9.67;;;7.80;;
3491;SDS011;1760;52.480;13.422;2023-04-08T13:29:46;8.10;;;7.13;;
3491;SDS011;1760;52.480;13.422;2023-04-08T13:32:13;9.87;;;7.37;;
3491;SDS011;1760;52.480;13.422;2023-04-08T13:34:43;8.87;;;5.83;;
3491;SDS011;1760;52.480;13.422;2023-04-08T13:37:10;12.93;;;7.60;;
3491;SDS011;1760;52.480;13.422;2023-04-08T13:39:40;10.13;;;6.53;;
3491;SDS011;1760;52.480;13.422;2023-04-08T13:42:06;14.40;;;8.27;;
3491;SDS011;1760;52.480;13.422;2023-04-08T13:44:35;13.00;;;8.20;;
3491;SDS011;1760;52.480;13.422;2023-04-08T13:47:01;14.17;;;7.10;;
3491;SDS011;1760;52.480;13.422;2023-04-08T13:49:28;12.53;;;7.70;;
3491;SDS011;1760;52.480;13.422;2023-04-08T13:51:55;10.60;;;6.50;;
3491;SDS011;1760;52.480;13.422;2023-04-08T13:54:22;10.00;;;7.20;;
3491;SDS011;1760;52.480;13.422;2023-04-08T13:56:50;10.73;;;8.30;;
3491;SDS011;1760;52.480;13.422;2023-04-08T13:59:17;10.27;;;8.13;;
3491;SDS011;1760;52.480;13.422;2023-04-08T14:01:46;12.80;;;8.60;;
3491;SDS011;1760;52.480;13.422;2023-04-08T14:04:14;11.33;;;7.50;;
3491;SDS011;1760;52.480;13.422;2023-04-08T14:06:42;12.97;;;7.60;;
3491;SDS011;1760;52.480;13.422;2023-04-08T14:09:09;10.47;;;7.70;;
3491;SDS011;1760;52.480;13.422;2023-04-08T14:11:36;9.67;;;7.47;;
3491;SDS011;1760;52.480;13.422;2023-04-08T14:14:03;9.27;;;7.13;;
3491;SDS011;1760;52.480;13.422;2023-04-08T14:16:35;10.67;;;7.57;;
3491;SDS011;1760;52.480;13.422;2023-04-08T14:19:05;12.37;;;8.63;;
3491;SDS011;1760;52.480;13.422;2023-04-08T14:21:32;14.67;;;8.23;;
3491;SDS011;1760;52.480;13.422;2023-04-08T14:24:01;11.60;;;8.23;;
3491;SDS011;1760;52.480;13.422;2023-04-08T14:26:31;10.60;;;7.90;;
3491;SDS011;1760;52.480;13.422;2023-04-08T14:29:00;9.67;;;6.90;;
3491;SDS011;1760;52.480;13.422;2023-04-08T14:31:28;27.13;;;7.50;;
3491;SDS011;1760;52.480;13.422;2023-04-08T14:33:55;12.00;;;6.57;;
3491;SDS011;1760;52.480;13.422;2023-04-08T14:36:24;8.00;;;6.70;;
3491;SDS011;1760;52.480;13.422;2023-04-08T14:38:52;11.00;;;8.73;;
3491;SDS011;1760;52.480;13.422;2023-04-08T14:41:20;12.17;;;7.00;;
3491;SDS011;1760;52.480;13.422;2023-04-08T14:43:50;11.73;;;6.83;;
3491;SDS011;1760;52.480;13.422;2023-04-08T14:46:17;12.53;;;7.50;;
3491;SDS011;1760;52.480;13.422;2023-04-08T14:48:46;12.40;;;8.07;;
3491;SDS011;1760;52.480;13.422;2023-04-08T14:51:12;13.97;;;7.33;;
3491;SDS011;1760;52.480;13.422;2023-04-08T14:53:41;11.30;;;7.87;;
3491;SDS011;1760;52.480;13.422;2023-04-08T14:56:08;9.80;;;6.60;;
3491;SDS011;1760;52.480;13.422;2023-04-08T14:58:35;9.67;;;7.20;;